Time;durP1;ratioP1;P1;durP2;ratioP2;P2;SDS_P1;SDS_P2;PMS_P1;PMS_P2;Temp;Humidity;BMP_temperature;BMP_pressure;BME280_temperature;BME280_humidity;BME280_pressure;Samples;Min_cycle;Max_cycle;Signal;HPM_P1;HPM_P2
2021/01/02 00:02:18;;;;;;;41.50;26.87;;;4.10;99.90;;;;;;4964097;28;20482;-77
2021/01/02 00:05:09;;;;;;;39.07;25.60;;;4.10;99.90;;;;;;4980219;28;20444;-78
2021/01/02 00:08:23;;;;;;;43.77;27.30;;;4.00;99.90;;;;;;4973560;28;20778;-77
2021/01/02 00:11:09;;;;;;;40.13;25.73;;;3.90;99.90;;;;;;4930373;28;20408;-77
2021/01/02 00:13:51;;;;;;;39.60;27.27;;;4.00;99.90;;;;;;4959907;28;20455;-77
2021/01/02 00:16:56;;;;;;;42.50;26.90;;;3.90;99.90;;;;;;5007349;28;20426;-77
2021/01/02 00:19:49;;;;;;;41.13;28.23;;;3.90;99.90;;;;;;4969812;28;20498;-77
2021/01/02 00:22:34;;;;;;;42.03;26.57;;;3.80;99.90;;;;;;4980144;28;20463;-77
2021/01/02 00:25:04;;;;;;;44.00;25.93;;;3.80;99.90;;;;;;4965040;28;20411;-79
2021/01/02 00:28:02;;;;;;;47.60;32.43;;;3.80;99.90;;;;;;4991157;28;20437;-77
2021/01/02 00:30:56;;;;;;;45.47;28.00;;;3.70;99.90;;;;;;4970146;28;20423;-77
2021/01/02 00:33:47;;;;;;;39.63;27.03;;;3.70;99.90;;;;;;4981835;28;21048;-77
2021/01/02 00:36:32;;;;;;;42.30;27.83;;;3.70;99.90;;;;;;4971590;28;20422;-77
2021/01/02 00:38:58;;;;;;;51.17;31.63;;;3.70;99.90;;;;;;4973160;28;20463;-77
2021/01/02 00:41:27;;;;;;;47.70;30.20;;;3.70;99.90;;;;;;4942099;28;20428;-76
2021/01/02 00:43:54;;;;;;;46.70;28.67;;;3.60;99.90;;;;;;4972256;28;20757;-76
2021/01/02 00:46:20;;;;;;;45.77;28.47;;;3.60;99.90;;;;;;4943201;28;20427;-76
2021/01/02 00:48:47;;;;;;;49.50;30.20;;;3.60;99.90;;;;;;4975567;28;20425;-76
2021/01/02 00:51:16;;;;;;;47.37;28.83;;;3.70;99.90;;;;;;5008034;28;20414;-77
2021/01/02 00:54:25;;;;;;;45.40;27.30;;;3.50;99.90;;;;;;4967905;28;20588;-76
2021/01/02 00:57:22;;;;;;;52.63;30.53;;;3.50;99.90;;;;;;4965643;28;20383;-76
2021/01/02 01:00:01;;;;;;;50.23;31.17;;;3.40;99.90;;;;;;4982186;28;20545;-76
2021/01/02 01:03:08;;;;;;;44.97;29.60;;;3.60;99.90;;;;;;4994015;28;20860;-77
2021/01/02 01:05:38;;;;;;;45.07;30.23;;;3.50;99.90;;;;;;5000185;28;20923;-77
2021/01/02 01:08:05;;;;;;;46.87;28.67;;;3.40;99.90;;;;;;4995982;28;20392;-76
2021/01/02 01:10:36;;;;;;;52.37;31.20;;;3.40;99.90;;;;;;4980750;28;20393;-76
2021/01/02 01:13:10;;;;;;;52.30;30.60;;;3.40;99.90;;;;;;4972050;28;21242;-76
2021/01/02 01:15:36;;;;;;;44.60;29.63;;;3.40;99.90;;;;;;4994622;28;20408;-76
2021/01/02 01:18:18;;;;;;;45.50;27.80;;;3.50;99.90;;;;;;5017911;28;20404;-76
2021/01/02 01:20:57;;;;;;;46.17;30.57;;;3.50;99.90;;;;;;4995490;28;20211;-76
2021/01/02 01:24:14;;;;;;;47.40;30.77;;;3.50;99.90;;;;;;5011932;28;20399;-76
2021/01/02 01:26:43;;;;;;;41.97;29.20;;;3.40;99.90;;;;;;4993819;28;20948;-76
2021/01/02 01:29:21;;;;;;;51.90;31.43;;;3.50;99.90;;;;;;5011442;28;20453;-76
2021/01/02 01:31:58;;;;;;;46.80;29.03;;;3.40;99.90;;;;;;5005075;28;20421;-76
2021/01/02 01:34:26;;;;;;;48.07;30.90;;;3.40;99.90;;;;;;4991640;28;20379;-76
2021/01/02 01:36:53;;;;;;;51.37;30.67;;;3.40;99.90;;;;;;4982759;28;20388;-76
2021/01/02 01:39:24;;;;;;;43.77;29.63;;;3.40;99.90;;;;;;4983433;28;20417;-76
2021/01/02 01:41:58;;;;;;;49.47;32.63;;;3.40;99.90;;;;;;4988881;28;20521;-76
2021/01/02 01:44:56;;;;;;;50.90;30.70;;;3.40;99.90;;;;;;4980834;28;20409;-76
2021/01/02 01:47:36;;;;;;;50.43;30.13;;;3.30;99.90;;;;;;5003002;28;20435;-77
2021/01/02 01:50:26;;;;;;;43.00;30.43;;;3.30;99.90;;;;;;4993741;28;20413;-77
2021/01/02 01:52:58;;;;;;;53.03;30.87;;;3.30;99.90;;;;;;4999442;28;20749;-76
2021/01/02 01:55:46;;;;;;;46.40;32.40;;;3.30;99.90;;;;;;5007715;28;20408;-76
2021/01/02 01:58:16;;;;;;;47.73;27.87;;;3.40;99.90;;;;;;4992136;28;20376;-77
2021/01/02 02:00:45;;;;;;;54.07;30.07;;;3.40;99.90;;;;;;4992298;28;20492;-77
2021/01/02 02:03:22;;;;;;;48.60;30.30;;;3.40;99.90;;;;;;4991070;28;20793;-77
2021/01/02 02:05:50;;;;;;;45.63;30.17;;;3.40;99.90;;;;;;4968314;28;20493;-77
2021/01/02 02:08:16;;;;;;;47.90;29.97;;;3.30;99.90;;;;;;4974553;28;20433;-77
2021/01/02 02:10:46;;;;;;;43.07;28.43;;;3.40;99.90;;;;;;4964863;28;20418;-76
2021/01/02 02:16:11;;;;;;;49.57;28.23;;;3.40;99.90;;;;;;5038925;28;20984;-82
2021/01/02 02:18:43;;;;;;;46.27;29.30;;;3.40;99.90;;;;;;5012952;28;20847;-82
2021/01/02 02:21:11;;;;;;;44.20;26.40;;;3.40;99.90;;;;;;5026742;28;20418;-82
2021/01/02 02:23:42;;;;;;;44.80;31.33;;;3.40;99.90;;;;;;5011616;28;20435;-82
2021/01/02 02:26:14;;;;;;;49.60;28.97;;;3.40;99.90;;;;;;5006508;28;20375;-81
2021/01/02 02:28:52;;;;;;;49.07;28.80;;;3.30;99.90;;;;;;5005037;28;20554;-81
2021/01/02 02:31:23;;;;;;;42.67;26.87;;;3.30;99.90;;;;;;5014399;28;20958;-82
2021/01/02 02:34:02;;;;;;;41.30;28.37;;;3.40;99.90;;;;;;5031029;28;20426;-83
2021/01/02 02:36:30;;;;;;;38.93;25.53;;;3.40;99.90;;;;;;5013081;28;21561;-82
2021/01/02 02:39:10;;;;;;;47.77;26.77;;;3.40;99.90;;;;;;5005852;28;20455;-82
2021/01/02 02:41:49;;;;;;;43.50;27.57;;;3.40;99.90;;;;;;5013404;28;20410;-82
2021/01/02 02:44:19;;;;;;;41.33;28.20;;;3.40;99.90;;;;;;5010099;28;20420;-82
2021/01/02 02:46:46;;;;;;;44.37;26.07;;;3.40;99.90;;;;;;5039257;28;20428;-83
2021/01/02 02:49:15;;;;;;;41.23;27.53;;;3.50;99.90;;;;;;5020962;28;20854;-82
2021/01/02 02:51:46;;;;;;;39.87;25.97;;;3.50;99.90;;;;;;5002551;28;20413;-83
2021/01/02 02:54:16;;;;;;;40.10;25.00;;;3.40;99.90;;;;;;5015724;28;20410;-82
2021/01/02 02:56:44;;;;;;;46.70;24.93;;;3.40;99.90;;;;;;5021783;28;20423;-83
2021/01/02 02:59:11;;;;;;;39.23;22.60;;;3.40;99.90;;;;;;5015532;28;20413;-83
2021/01/02 03:01:38;;;;;;;37.33;22.30;;;3.30;99.90;;;;;;5018299;28;20847;-81
2021/01/02 03:04:04;;;;;;;40.80;22.20;;;3.30;99.90;;;;;;4997442;28;20444;-81
2021/01/02 03:06:31;;;;;;;35.23;21.83;;;3.30;99.90;;;;;;4984260;28;20368;-81
2021/01/02 03:08:58;;;;;;;31.30;20.80;;;3.40;99.90;;;;;;5010454;28;20198;-81
2021/01/02 03:11:25;;;;;;;36.80;21.97;;;3.30;99.90;;;;;;5004076;28;20784;-82
2021/01/02 03:13:54;;;;;;;30.83;22.60;;;3.30;99.90;;;;;;5007264;28;20424;-82
2021/01/02 03:16:23;;;;;;;36.23;21.60;;;3.30;99.90;;;;;;5007812;28;20465;-82
2021/01/02 03:18:49;;;;;;;28.33;19.70;;;3.30;99.90;;;;;;4988041;28;20405;-82
2021/01/02 03:21:15;;;;;;;23.97;17.83;;;3.30;99.90;;;;;;5018905;28;20435;-82
2021/01/02 03:23:48;;;;;;;31.57;18.57;;;3.30;99.90;;;;;;5019311;28;20450;-82
2021/01/02 03:26:14;;;;;;;27.53;17.27;;;3.30;99.90;;;;;;5003990;28;20206;-82
2021/01/02 03:28:50;;;;;;;25.53;16.13;;;3.20;99.90;;;;;;5007054;28;20472;-82
2021/01/02 03:31:17;;;;;;;24.17;15.20;;;3.30;99.90;;;;;;5003152;28;20494;-83
2021/01/02 03:33:43;;;;;;;27.90;17.23;;;3.30;99.90;;;;;;5022986;28;20397;-82
2021/01/02 03:36:10;;;;;;;25.73;17.33;;;3.30;99.90;;;;;;5019792;28;20388;-82
2021/01/02 03:38:36;;;;;;;24.33;16.40;;;3.20;99.90;;;;;;4990957;28;21049;-82
2021/01/02 03:41:03;;;;;;;27.63;18.37;;;3.20;99.90;;;;;;5033777;28;20387;-82
2021/01/02 03:43:29;;;;;;;27.53;17.10;;;3.10;99.90;;;;;;5035641;28;20433;-83
2021/01/02 03:45:55;;;;;;;28.40;17.53;;;3.20;99.90;;;;;;5033730;28;21025;-82
2021/01/02 03:48:22;;;;;;;29.90;18.13;;;3.20;99.90;;;;;;5003447;28;20212;-82
2021/01/02 03:50:47;;;;;;;27.47;18.53;;;3.20;99.90;;;;;;5011795;28;20475;-81
2021/01/02 03:53:14;;;;;;;33.87;20.43;;;3.20;99.90;;;;;;5002876;28;20905;-80
2021/01/02 03:55:40;;;;;;;31.37;20.07;;;3.20;99.90;;;;;;4985557;28;20345;-81
2021/01/02 03:58:06;;;;;;;29.90;18.97;;;3.20;99.90;;;;;;5021508;28;20479;-81
2021/01/02 04:00:32;;;;;;;31.20;20.10;;;3.20;99.90;;;;;;5009140;28;20939;-81
2021/01/02 04:02:59;;;;;;;28.87;18.17;;;3.10;99.90;;;;;;5007771;28;20447;-81
2021/01/02 04:05:25;;;;;;;31.30;20.33;;;3.20;99.90;;;;;;5010333;28;20508;-81
2021/01/02 04:07:50;;;;;;;34.80;19.77;;;3.20;99.90;;;;;;5024358;28;20485;-81
2021/01/02 04:10:17;;;;;;;33.17;20.23;;;3.20;99.90;;;;;;4984268;28;20245;-81
2021/01/02 04:12:43;;;;;;;33.93;19.20;;;3.30;99.90;;;;;;5021616;28;20269;-81
2021/01/02 04:15:08;;;;;;;37.50;20.57;;;3.20;99.90;;;;;;5023980;28;20509;-81
2021/01/02 04:17:34;;;;;;;28.30;19.47;;;3.30;99.90;;;;;;4999289;28;20285;-81
2021/01/02 04:20:00;;;;;;;28.23;17.93;;;3.20;99.90;;;;;;5003624;28;20452;-81
2021/01/02 04:22:26;;;;;;;30.43;20.67;;;3.20;99.90;;;;;;5007745;28;20215;-81
2021/01/02 04:24:51;;;;;;;29.37;18.10;;;3.20;99.90;;;;;;5009010;28;20207;-81
2021/01/02 04:27:17;;;;;;;34.73;20.63;;;3.10;99.90;;;;;;5005569;28;20207;-81
2021/01/02 04:29:42;;;;;;;28.73;19.83;;;3.20;99.90;;;;;;5005409;28;20210;-81
2021/01/02 04:32:08;;;;;;;32.17;19.30;;;3.10;99.90;;;;;;5017716;28;20214;-81
2021/01/02 04:34:34;;;;;;;32.43;21.17;;;3.20;99.90;;;;;;5005950;28;20682;-81
2021/01/02 04:36:59;;;;;;;34.57;21.57;;;3.10;99.90;;;;;;5000139;28;20803;-81
2021/01/02 04:39:25;;;;;;;30.07;20.80;;;3.30;99.90;;;;;;4987675;28;20259;-81
2021/01/02 04:41:55;;;;;;;34.37;20.17;;;3.20;99.90;;;;;;4986218;28;20290;-81
2021/01/02 04:44:23;;;;;;;31.23;21.60;;;3.20;99.90;;;;;;5027310;28;20236;-81
2021/01/02 04:46:49;;;;;;;35.83;21.57;;;3.20;99.90;;;;;;5010330;28;20945;-81
2021/01/02 04:49:15;;;;;;;32.00;21.47;;;3.10;99.90;;;;;;5008609;28;20953;-81
2021/01/02 04:51:40;;;;;;;32.30;21.67;;;3.10;99.90;;;;;;5022842;28;20583;-81
2021/01/02 04:54:07;;;;;;;31.10;22.50;;;3.10;99.90;;;;;;5004157;28;20281;-80
2021/01/02 04:56:40;;;;;;;33.00;21.30;;;3.10;99.90;;;;;;5024449;28;20221;-82
2021/01/02 04:59:11;;;;;;;38.03;23.77;;;3.20;99.90;;;;;;5026048;28;20455;-82
2021/01/02 05:01:41;;;;;;;34.57;23.67;;;3.10;99.90;;;;;;5001395;28;20918;-81
2021/01/02 05:04:10;;;;;;;40.70;21.87;;;3.20;99.90;;;;;;5014211;28;20389;-81
2021/01/02 05:06:36;;;;;;;37.57;22.70;;;3.20;99.90;;;;;;5026187;28;20420;-81
2021/01/02 05:09:06;;;;;;;37.60;22.30;;;3.10;99.90;;;;;;4994738;28;20408;-81
2021/01/02 05:11:39;;;;;;;28.40;19.67;;;3.00;99.90;;;;;;5000787;28;20400;-81
2021/01/02 05:14:06;;;;;;;31.60;22.07;;;3.00;99.90;;;;;;5021040;28;21619;-81
2021/01/02 05:16:37;;;;;;;38.07;23.97;;;3.00;99.90;;;;;;4995844;28;20407;-81
2021/01/02 05:19:08;;;;;;;33.93;21.50;;;3.10;99.90;;;;;;5014558;28;20447;-80
2021/01/02 05:21:36;;;;;;;37.20;22.47;;;3.00;99.90;;;;;;5024801;28;20400;-81
2021/01/02 05:24:07;;;;;;;34.37;22.60;;;3.10;99.90;;;;;;5005958;28;20420;-81
2021/01/02 05:26:55;;;;;;;34.80;22.73;;;3.00;99.90;;;;;;5013388;28;20410;-81
2021/01/02 05:29:23;;;;;;;34.07;23.30;;;3.00;99.90;;;;;;5019787;28;20380;-80
2021/01/02 05:31:52;;;;;;;30.57;21.83;;;3.00;99.90;;;;;;5015608;28;20423;-80
2021/01/02 05:34:20;;;;;;;32.67;20.17;;;3.00;99.90;;;;;;5020875;28;20414;-81
2021/01/02 05:36:46;;;;;;;33.63;23.20;;;3.10;99.90;;;;;;4991151;28;20389;-81
2021/01/02 05:39:17;;;;;;;41.23;23.73;;;3.10;99.90;;;;;;5028541;28;20595;-81
2021/01/02 05:42:09;;;;;;;33.97;21.10;;;3.10;99.90;;;;;;5031671;28;20475;-81
2021/01/02 05:44:38;;;;;;;30.37;20.67;;;3.20;99.90;;;;;;5013518;28;20378;-81
2021/01/02 05:47:04;;;;;;;34.00;21.97;;;3.20;99.90;;;;;;5017495;28;20387;-80
2021/01/02 05:49:32;;;;;;;33.97;22.00;;;3.10;99.90;;;;;;5018103;28;20429;-81
2021/01/02 05:52:03;;;;;;;31.50;22.30;;;3.10;99.90;;;;;;5002359;28;20431;-80
2021/01/02 05:54:31;;;;;;;36.80;21.90;;;3.10;99.90;;;;;;5022940;28;20418;-80
2021/01/02 05:57:00;;;;;;;35.73;21.80;;;3.10;99.90;;;;;;4999231;28;20429;-81
2021/01/02 05:59:36;;;;;;;36.80;22.77;;;3.10;99.90;;;;;;5022741;28;20412;-81
2021/01/02 06:02:37;;;;;;;40.00;21.73;;;3.10;99.90;;;;;;5036706;28;21234;-81
2021/01/02 06:05:03;;;;;;;38.27;22.07;;;3.30;99.90;;;;;;4966832;28;20389;-81
2021/01/02 06:07:33;;;;;;;36.50;22.10;;;3.30;99.90;;;;;;4982729;28;20434;-81
2021/01/02 06:10:01;;;;;;;31.30;22.10;;;3.30;99.90;;;;;;4982276;28;20200;-80
2021/01/02 06:12:34;;;;;;;37.33;21.90;;;3.10;99.90;;;;;;4983381;28;20406;-80
2021/01/02 06:15:07;;;;;;;43.43;22.60;;;3.10;99.90;;;;;;4996131;28;20423;-81
2021/01/02 06:17:34;;;;;;;37.13;22.27;;;3.10;99.90;;;;;;4997431;28;20423;-81
2021/01/02 06:20:07;;;;;;;31.00;20.83;;;3.10;99.90;;;;;;4998333;28;20389;-81
2021/01/02 06:22:59;;;;;;;32.37;18.77;;;3.10;99.90;;;;;;4981660;28;20535;-81
2021/01/02 06:25:25;;;;;;;42.37;25.10;;;3.10;99.90;;;;;;4962960;28;20378;-81
2021/01/02 06:27:53;;;;;;;37.80;21.70;;;3.10;99.90;;;;;;4964094;28;20453;-81
2021/01/02 06:30:19;;;;;;;34.63;22.10;;;3.10;99.90;;;;;;4964044;28;20452;-81
2021/01/02 06:32:47;;;;;;;32.03;22.70;;;3.20;99.90;;;;;;4943483;28;20466;-82
2021/01/02 06:35:14;;;;;;;32.37;21.20;;;3.10;99.90;;;;;;4940470;28;20451;-81
2021/01/02 06:37:50;;;;;;;32.03;20.97;;;3.10;99.90;;;;;;4978508;28;20412;-81
2021/01/02 06:40:25;;;;;;;31.97;20.53;;;3.10;99.90;;;;;;5014717;28;20445;-81
2021/01/02 06:43:02;;;;;;;33.03;20.30;;;3.20;99.90;;;;;;5003135;28;20491;-81
2021/01/02 06:45:39;;;;;;;32.17;21.20;;;3.10;99.90;;;;;;4985869;28;20409;-81
2021/01/02 06:48:17;;;;;;;38.30;23.07;;;3.30;99.90;;;;;;5012071;28;20420;-81
2021/01/02 06:50:48;;;;;;;35.43;20.77;;;3.20;99.90;;;;;;4991800;28;20387;-81
2021/01/02 06:53:32;;;;;;;33.60;20.10;;;3.10;99.90;;;;;;4989977;28;20421;-82
2021/01/02 06:56:05;;;;;;;37.37;21.03;;;3.10;99.90;;;;;;4975749;28;20402;-81
2021/01/02 06:58:45;;;;;;;35.40;21.20;;;3.10;99.90;;;;;;4997253;28;20405;-81
2021/01/02 07:01:17;;;;;;;35.77;21.27;;;3.20;99.90;;;;;;5002026;28;20890;-81
2021/01/02 07:03:46;;;;;;;35.37;21.80;;;3.10;99.90;;;;;;5029429;28;20970;-81
2021/01/02 07:06:21;;;;;;;31.57;22.77;;;3.00;99.90;;;;;;5040898;28;20362;-80
2021/01/02 07:08:55;;;;;;;38.50;22.33;;;3.10;99.90;;;;;;5011399;28;20394;-80
2021/01/02 07:11:38;;;;;;;32.07;20.53;;;3.10;99.90;;;;;;5040125;28;20840;-81
2021/01/02 07:14:09;;;;;;;27.90;18.57;;;3.20;99.90;;;;;;5006243;28;20386;-81
2021/01/02 07:16:43;;;;;;;33.40;21.63;;;3.10;99.90;;;;;;5017819;28;20378;-80
2021/01/02 07:19:24;;;;;;;34.93;22.47;;;3.10;99.90;;;;;;5019037;28;20386;-80
2021/01/02 07:22:17;;;;;;;36.00;21.73;;;3.00;99.90;;;;;;5006132;28;20417;-81
2021/01/02 07:25:06;;;;;;;33.17;22.13;;;3.00;99.90;;;;;;5014456;28;21069;-81
2021/01/02 07:27:37;;;;;;;38.13;20.90;;;3.00;99.90;;;;;;5032618;28;20505;-81
2021/01/02 07:30:10;;;;;;;35.20;22.67;;;3.00;99.90;;;;;;5033575;28;20408;-81
2021/01/02 07:32:38;;;;;;;35.73;23.93;;;3.00;99.90;;;;;;5021706;28;20445;-81
2021/01/02 07:35:07;;;;;;;33.33;20.13;;;3.10;99.90;;;;;;5003240;28;20962;-81
2021/01/02 07:37:35;;;;;;;29.40;19.27;;;3.00;99.90;;;;;;5007527;28;20609;-81
2021/01/02 07:40:10;;;;;;;35.50;20.87;;;3.10;99.90;;;;;;5020758;28;20406;-81
2021/01/02 07:42:38;;;;;;;37.40;22.93;;;3.10;99.90;;;;;;5019780;28;20431;-81
2021/01/02 07:45:08;;;;;;;37.57;22.13;;;3.30;99.90;;;;;;5027444;28;20489;-81
2021/01/02 07:47:45;;;;;;;39.70;22.70;;;3.30;99.90;;;;;;5034691;28;20382;-81
2021/01/02 07:50:13;;;;;;;33.80;19.30;;;3.30;99.90;;;;;;5008239;28;20382;-81
2021/01/02 07:52:54;;;;;;;34.90;21.40;;;3.20;99.90;;;;;;5002549;28;20448;-81
2021/01/02 07:55:25;;;;;;;35.23;23.37;;;3.10;99.90;;;;;;4987466;28;20454;-81
2021/01/02 07:57:52;;;;;;;37.10;22.73;;;3.10;99.90;;;;;;5025810;28;20770;-81
2021/01/02 08:00:18;;;;;;;35.90;23.13;;;3.30;99.90;;;;;;4991443;28;21014;-82
2021/01/02 08:02:44;;;;;;;32.87;19.53;;;3.30;99.90;;;;;;5023273;28;20477;-82
2021/01/02 08:05:20;;;;;;;41.70;24.20;;;3.30;99.90;;;;;;5007249;28;20414;-82
2021/01/02 08:07:54;;;;;;;40.67;23.77;;;3.30;99.90;;;;;;5004723;28;21506;-82
2021/01/02 08:10:20;;;;;;;35.43;19.63;;;3.10;99.90;;;;;;5025991;28;20956;-82
2021/01/02 08:12:50;;;;;;;36.93;21.20;;;3.30;99.90;;;;;;4988449;28;20545;-83
2021/01/02 08:15:26;;;;;;;38.53;21.30;;;3.20;99.90;;;;;;5032344;28;20966;-83
2021/01/02 08:17:51;;;;;;;30.87;18.67;;;3.30;99.90;;;;;;5023080;28;20435;-83
2021/01/02 08:20:18;;;;;;;44.47;22.40;;;3.30;99.90;;;;;;5016746;28;20494;-84
2021/01/02 08:22:45;;;;;;;38.60;24.03;;;3.40;99.90;;;;;;4982178;28;20408;-83
2021/01/02 08:25:18;;;;;;;38.63;23.37;;;3.50;99.90;;;;;;5022104;28;20397;-81
2021/01/02 08:27:47;;;;;;;34.43;21.43;;;3.50;99.90;;;;;;4996815;28;20413;-81
2021/01/02 08:30:14;;;;;;;38.50;23.00;;;3.50;99.90;;;;;;4997708;28;20440;-80
2021/01/02 08:32:50;;;;;;;42.73;23.77;;;3.50;99.90;;;;;;4986820;28;20421;-80
2021/01/02 08:35:42;;;;;;;41.03;24.43;;;3.50;99.90;;;;;;5018407;28;20437;-80
2021/01/02 08:38:11;;;;;;;47.50;25.07;;;3.40;99.90;;;;;;5014289;28;20394;-80
2021/01/02 08:41:16;;;;;;;37.00;21.77;;;3.40;99.90;;;;;;5012744;28;20461;-81
2021/01/02 08:43:47;;;;;;;42.10;22.90;;;3.40;99.90;;;;;;4966223;28;20543;-81
2021/01/02 08:46:13;;;;;;;33.83;21.63;;;3.50;99.90;;;;;;4998876;28;20433;-80
2021/01/02 08:48:45;;;;;;;35.70;20.53;;;3.50;99.90;;;;;;4971981;28;20433;-81
2021/01/02 08:51:25;;;;;;;33.10;22.50;;;3.60;99.90;;;;;;4967865;28;20209;-80
2021/01/02 08:53:52;;;;;;;33.27;22.13;;;3.50;99.90;;;;;;5002506;28;20444;-80
2021/01/02 08:56:27;;;;;;;41.33;25.97;;;3.50;99.90;;;;;;4984670;28;20416;-80
2021/01/02 08:58:53;;;;;;;43.03;25.30;;;3.70;99.90;;;;;;4996200;28;20426;-80
2021/01/02 09:01:20;;;;;;;40.57;22.77;;;3.80;99.90;;;;;;4980670;28;20508;-81
2021/01/02 09:03:46;;;;;;;34.13;23.00;;;3.90;99.90;;;;;;4998157;28;20488;-80
2021/01/02 09:06:25;;;;;;;43.70;23.23;;;3.90;99.90;;;;;;4986721;28;20460;-80
2021/01/02 09:09:20;;;;;;;39.97;21.17;;;3.70;99.90;;;;;;4997707;28;20992;-80
2021/01/02 09:11:50;;;;;;;35.63;21.00;;;3.80;99.90;;;;;;4981992;28;20438;-81
2021/01/02 09:14:19;;;;;;;39.07;24.10;;;3.90;99.90;;;;;;4993613;28;20446;-80
2021/01/02 09:17:03;;;;;;;40.77;24.77;;;3.80;99.90;;;;;;4981462;28;20457;-80
2021/01/02 09:19:29;;;;;;;49.57;25.20;;;3.70;99.90;;;;;;4988692;28;20384;-80
2021/01/02 09:21:57;;;;;;;45.43;23.93;;;3.70;99.90;;;;;;5002910;28;20440;-81
2021/01/02 09:24:24;;;;;;;42.87;24.70;;;3.80;99.90;;;;;;5021091;28;20403;-81
2021/01/02 09:26:52;;;;;;;50.47;24.83;;;3.80;99.90;;;;;;5018506;28;20430;-81
2021/01/02 09:29:18;;;;;;;43.60;26.97;;;3.70;99.90;;;;;;5016588;28;20388;-79
2021/01/02 09:31:45;;;;;;;44.47;27.97;;;3.60;99.90;;;;;;5000185;28;20967;-82
2021/01/02 09:34:12;;;;;;;48.37;28.43;;;3.70;99.90;;;;;;5000989;28;20409;-82
2021/01/02 09:36:39;;;;;;;56.90;32.27;;;3.80;99.90;;;;;;5025419;28;20424;-82
2021/01/02 09:39:05;;;;;;;49.43;26.60;;;3.70;99.90;;;;;;5002000;28;20413;-83
2021/01/02 09:41:32;;;;;;;41.70;23.97;;;3.90;99.90;;;;;;5000934;28;20422;-83
2021/01/02 09:44:00;;;;;;;39.10;24.90;;;3.80;99.90;;;;;;4999727;28;20388;-82
2021/01/02 09:46:28;;;;;;;42.50;24.63;;;4.00;99.90;;;;;;5004215;28;20881;-82
2021/01/02 09:49:17;;;;;;;36.23;24.00;;;4.00;99.90;;;;;;5026741;28;20412;-82
2021/01/02 09:51:44;;;;;;;43.37;25.20;;;4.10;99.90;;;;;;4945895;28;20763;-83
2021/01/02 09:54:10;;;;;;;49.23;24.40;;;4.10;99.90;;;;;;4953732;28;20428;-83
2021/01/02 09:56:45;;;;;;;40.50;24.77;;;4.30;99.90;;;;;;4931946;28;20458;-83
2021/01/02 09:59:11;;;;;;;45.30;25.60;;;4.20;99.90;;;;;;4942441;28;20398;-83
2021/01/02 10:01:36;;;;;;;58.73;33.10;;;4.20;99.90;;;;;;4918530;28;20398;-82
2021/01/02 10:04:02;;;;;;;41.00;24.20;;;4.00;99.90;;;;;;4931130;28;20739;-82
2021/01/02 10:06:28;;;;;;;45.90;26.77;;;4.00;99.90;;;;;;4938182;28;20206;-82
2021/01/02 10:08:53;;;;;;;40.80;28.00;;;4.00;99.90;;;;;;4957490;28;20221;-82
2021/01/02 10:11:20;;;;;;;42.20;23.83;;;4.10;99.90;;;;;;4909547;28;20287;-82
2021/01/02 10:13:46;;;;;;;48.20;25.07;;;4.20;99.90;;;;;;4957263;28;20232;-82
2021/01/02 10:16:17;;;;;;;37.97;24.37;;;4.30;99.90;;;;;;4954708;28;20467;-82
2021/01/02 10:18:44;;;;;;;55.50;34.10;;;4.20;99.90;;;;;;4939995;28;20303;-82
2021/01/02 10:21:12;;;;;;;62.70;33.93;;;4.30;99.90;;;;;;4938745;28;20398;-83
2021/01/02 10:23:39;;;;;;;47.43;31.53;;;4.10;99.90;;;;;;4949938;28;21170;-83
2021/01/02 10:26:04;;;;;;;38.60;22.23;;;4.10;99.90;;;;;;4917458;28;20423;-83
2021/01/02 10:28:31;;;;;;;51.57;31.10;;;4.00;99.90;;;;;;4989545;28;20424;-83
2021/01/02 10:30:57;;;;;;;50.67;31.57;;;4.10;99.90;;;;;;4998917;28;20215;-83
2021/01/02 10:33:22;;;;;;;41.70;21.50;;;4.20;99.90;;;;;;5008357;28;20400;-83
2021/01/02 10:35:48;;;;;;;45.50;24.77;;;4.30;99.90;;;;;;5003518;28;20230;-83
2021/01/02 10:38:15;;;;;;;44.20;23.10;;;4.10;99.90;;;;;;4991143;28;20666;-83
2021/01/02 10:40:40;;;;;;;40.90;23.33;;;4.30;99.90;;;;;;4992268;28;20203;-83
2021/01/02 10:43:06;;;;;;;35.30;24.77;;;4.20;99.90;;;;;;4993923;28;20431;-83
2021/01/02 10:45:33;;;;;;;37.97;23.00;;;4.10;99.90;;;;;;5012299;28;20194;-83
2021/01/02 10:47:59;;;;;;;33.07;22.27;;;4.20;99.90;;;;;;4993424;28;20305;-83
2021/01/02 10:50:25;;;;;;;36.60;21.60;;;4.40;99.90;;;;;;5006836;28;20386;-83
2021/01/02 10:52:50;;;;;;;37.40;22.60;;;4.40;99.90;;;;;;4989378;28;20831;-83
2021/01/02 10:55:16;;;;;;;35.63;21.20;;;4.50;99.90;;;;;;5012283;28;20961;-83
2021/01/02 10:57:44;;;;;;;39.17;24.77;;;4.50;99.90;;;;;;5012156;28;20214;-83
2021/01/02 11:00:13;;;;;;;35.07;22.27;;;4.40;99.90;;;;;;5002493;28;20203;-83
2021/01/02 11:02:39;;;;;;;45.10;22.43;;;4.40;99.90;;;;;;4996461;28;20429;-83
2021/01/02 11:05:05;;;;;;;38.00;23.40;;;4.50;99.90;;;;;;4995210;28;20853;-84
2021/01/02 11:07:31;;;;;;;34.83;22.60;;;4.50;99.90;;;;;;4992055;28;20212;-83
2021/01/02 11:09:57;;;;;;;33.00;22.73;;;4.60;99.90;;;;;;4990863;28;21348;-83
2021/01/02 11:12:25;;;;;;;40.60;24.17;;;4.90;99.90;;;;;;4994715;28;20215;-84
2021/01/02 11:14:52;;;;;;;38.73;21.60;;;4.90;99.90;;;;;;5014263;28;20250;-83
2021/01/02 11:17:18;;;;;;;34.20;21.20;;;4.90;99.90;;;;;;4974689;28;20423;-83
2021/01/02 11:19:45;;;;;;;32.83;21.70;;;4.80;99.90;;;;;;5007715;28;20976;-83
2021/01/02 11:22:11;;;;;;;30.03;20.93;;;5.10;99.90;;;;;;5028513;28;20303;-83
2021/01/02 11:24:42;;;;;;;38.40;21.77;;;5.20;99.90;;;;;;5007363;28;20974;-83
2021/01/02 11:27:09;;;;;;;30.97;21.70;;;5.60;99.90;;;;;;5005946;28;20213;-83
2021/01/02 11:29:35;;;;;;;34.90;22.03;;;5.70;99.90;;;;;;4993753;28;20404;-83
2021/01/02 11:32:08;;;;;;;34.80;22.60;;;5.90;99.90;;;;;;5012113;28;20438;-84
2021/01/02 11:34:34;;;;;;;38.73;23.97;;;5.90;99.90;;;;;;5024552;28;20876;-83
2021/01/02 11:37:01;;;;;;;51.60;29.07;;;5.80;99.90;;;;;;4989598;28;20592;-83
2021/01/02 11:39:29;;;;;;;35.93;23.17;;;5.70;99.90;;;;;;5013871;28;20631;-82
2021/01/02 11:41:55;;;;;;;38.93;22.47;;;5.80;99.90;;;;;;5024992;28;20433;-82
2021/01/02 11:44:24;;;;;;;39.37;23.63;;;6.00;99.90;;;;;;5006993;28;20433;-83
2021/01/02 11:46:55;;;;;;;30.63;21.20;;;5.70;99.90;;;;;;4994614;28;20487;-83
2021/01/02 11:49:25;;;;;;;36.87;21.10;;;5.30;99.90;;;;;;5024066;28;20807;-83
2021/01/02 11:51:54;;;;;;;39.90;24.63;;;5.10;99.90;;;;;;5021076;28;20409;-83
2021/01/02 11:54:21;;;;;;;35.53;21.37;;;5.30;99.90;;;;;;4998819;28;20449;-82
2021/01/02 11:56:47;;;;;;;35.60;21.87;;;5.30;99.90;;;;;;5002123;28;20413;-83
2021/01/02 11:59:14;;;;;;;33.50;19.13;;;5.20;99.90;;;;;;5005371;28;20509;-83
2021/01/02 12:01:46;;;;;;;32.40;20.83;;;5.00;99.90;;;;;;4988062;28;20465;-82
2021/01/02 12:04:14;;;;;;;29.73;18.83;;;5.00;99.90;;;;;;5002073;28;20414;-83
2021/01/02 12:06:43;;;;;;;29.43;18.70;;;5.00;99.90;;;;;;4999151;28;20417;-83
2021/01/02 12:09:36;;;;;;;34.80;21.37;;;4.90;99.90;;;;;;5009448;28;20422;-84
2021/01/02 12:12:03;;;;;;;34.93;20.77;;;5.00;99.90;;;;;;4946838;28;20485;-83
2021/01/02 12:14:30;;;;;;;37.40;20.60;;;4.90;99.90;;;;;;4959425;28;20437;-83
2021/01/02 12:16:58;;;;;;;30.90;19.23;;;5.00;99.90;;;;;;4963650;28;20382;-83
2021/01/02 12:19:27;;;;;;;33.97;20.43;;;5.00;99.90;;;;;;4933974;28;20515;-82
2021/01/02 12:21:56;;;;;;;31.80;21.17;;;5.20;99.90;;;;;;4939665;28;20428;-82
2021/01/02 12:24:22;;;;;;;31.37;19.50;;;5.20;99.90;;;;;;4955826;28;20413;-82
2021/01/02 12:26:55;;;;;;;34.37;21.50;;;5.30;99.90;;;;;;4956666;28;20356;-82
2021/01/02 12:29:23;;;;;;;29.87;19.43;;;5.50;99.90;;;;;;4958568;28;20504;-83
2021/01/02 12:31:52;;;;;;;34.83;19.23;;;5.50;99.90;;;;;;4944831;28;20380;-83
2021/01/02 12:34:21;;;;;;;27.90;18.80;;;5.50;99.90;;;;;;4959128;28;20492;-83
2021/01/02 12:36:48;;;;;;;30.33;20.50;;;5.50;99.90;;;;;;4942634;28;20957;-84
2021/01/02 12:39:21;;;;;;;29.00;18.10;;;5.60;99.90;;;;;;4944636;28;20363;-83
2021/01/02 12:41:47;;;;;;;27.40;17.23;;;5.70;99.90;;;;;;4927594;28;20491;-83
2021/01/02 12:44:14;;;;;;;30.00;19.10;;;5.40;99.90;;;;;;4959621;28;20431;-83
2021/01/02 12:46:43;;;;;;;33.67;20.30;;;5.70;99.90;;;;;;4958474;28;20395;-82
2021/01/02 12:49:09;;;;;;;29.13;20.33;;;5.50;99.90;;;;;;4978515;28;20396;-82
2021/01/02 12:51:35;;;;;;;26.50;18.97;;;5.30;99.90;;;;;;4969010;28;20525;-82
2021/01/02 12:54:00;;;;;;;29.50;18.50;;;5.40;99.90;;;;;;5019885;28;20484;-82
2021/01/02 12:56:27;;;;;;;29.43;17.30;;;5.50;99.90;;;;;;4988004;28;20210;-83
2021/01/02 12:58:52;;;;;;;31.13;19.20;;;5.80;99.90;;;;;;4983210;28;20203;-83
2021/01/02 13:01:18;;;;;;;29.40;16.33;;;5.80;99.90;;;;;;5014934;28;20448;-83